Time;durP1;ratioP1;P1;durP2;ratioP2;P2;SDS_P1;SDS_P2;PMS_P1;PMS_P2;Temp;Humidity;BMP_temperature;BMP_pressure;BME280_temperature;BME280_humidity;BME280_pressure;Samples;Min_cycle;Max_cycle;Signal;HPM_P1;HPM_P2
2021/12/18 00:00:45;;;;;;;9.85;9.05;;;;;;;18.47;39.25;102440.53;5052774;28;20476;-74
2021/12/18 00:03:13;;;;;;;10.00;9.15;;;;;;;18.47;39.18;102445.91;5054723;28;20392;-74
2021/12/18 00:05:41;;;;;;;10.45;9.43;;;;;;;18.46;39.26;102447.72;5055018;28;20045;-74
2021/12/18 00:08:08;;;;;;;9.55;8.65;;;;;;;18.47;39.10;102453.94;5054708;28;20049;-74
2021/12/18 00:10:36;;;;;;;9.43;8.55;;;;;;;18.47;38.81;102456.63;5054587;28;20489;-74
2021/12/18 00:13:04;;;;;;;10.23;9.25;;;;;;;18.46;38.87;102469.19;5054837;28;20056;-74
2021/12/18 00:15:31;;;;;;;10.43;9.38;;;;;;;18.47;38.63;102473.63;5054384;28;20049;-74
2021/12/18 00:17:59;;;;;;;11.07;8.98;;;;;;;18.48;38.68;102474.47;5054637;28;20060;-74
2021/12/18 00:20:27;;;;;;;9.48;8.57;;;;;;;18.47;38.56;102464.69;5054442;28;20048;-74
2021/12/18 00:22:56;;;;;;;10.55;8.90;;;;;;;18.48;39.06;102467.28;5054747;28;20056;-74
2021/12/18 00:25:24;;;;;;;9.30;8.40;;;;;;;18.49;38.84;102476.19;5054287;28;20048;-74
2021/12/18 00:27:51;;;;;;;9.05;8.25;;;;;;;18.49;38.90;102484.25;5054550;28;20044;-74
2021/12/18 00:30:19;;;;;;;9.68;8.68;;;;;;;18.50;39.12;102480.59;5054368;28;20049;-74
2021/12/18 00:32:46;;;;;;;10.68;8.43;;;;;;;18.51;38.94;102493.06;5054366;28;20052;-74
2021/12/18 00:35:14;;;;;;;9.25;8.10;;;;;;;18.51;38.87;102493.94;5053971;28;20049;-74
2021/12/18 00:37:42;;;;;;;9.70;8.77;;;;;;;18.52;38.88;102498.34;5054044;28;20045;-74
2021/12/18 00:40:17;;;;;;;9.43;8.40;;;;;;;18.52;38.59;102495.66;5054613;28;20052;-74
2021/12/18 00:42:59;;;;;;;10.27;8.18;;;;;;;18.54;38.92;102500.94;5053986;28;20060;-75
2021/12/18 00:45:28;;;;;;;9.60;8.70;;;;;;;18.53;38.98;102489.34;5053784;28;20044;-75
2021/12/18 00:47:57;;;;;;;8.93;8.13;;;;;;;18.54;38.86;102492.88;5053227;28;20412;-75
2021/12/18 00:50:30;;;;;;;9.25;8.35;;;;;;;18.54;39.21;102498.25;5053442;28;20408;-75
2021/12/18 00:52:57;;;;;;;9.18;8.27;;;;;;;18.53;39.02;102483.97;5054029;28;20071;-74
2021/12/18 00:55:25;;;;;;;9.13;8.23;;;;;;;18.54;38.87;102468.75;5053853;28;20495;-75
2021/12/18 00:57:53;;;;;;;8.75;7.95;;;;;;;18.55;39.00;102467.78;5053982;28;20052;-75
2021/12/18 01:00:24;;;;;;;8.65;7.85;;;;;;;18.54;38.89;102472.28;5053401;28;20409;-75
2021/12/18 01:02:56;;;;;;;8.18;7.30;;;;;;;18.55;39.11;102470.47;5053877;28;20044;-74
2021/12/18 01:05:24;;;;;;;8.70;7.90;;;;;;;18.53;39.14;102473.25;5053071;28;20049;-75
2021/12/18 01:07:55;;;;;;;9.57;8.57;;;;;;;18.53;39.15;102470.56;5053321;28;20045;-75
2021/12/18 01:13:01;;;;;;;9.60;8.63;;;;;;;18.53;38.83;102462.53;5073097;28;20050;-75
2021/12/18 01:15:33;;;;;;;8.43;7.63;;;;;;;18.54;39.12;102460.69;5073453;28;20036;-74
2021/12/18 01:23:34;;;;;;;9.27;8.00;;;;;;;18.51;39.17;102451.03;5073212;28;20388;-74
2021/12/18 01:26:03;;;;;;;9.13;7.82;;;;;;;18.52;38.94;102454.56;5072327;28;20032;-74
2021/12/18 01:28:32;;;;;;;8.60;7.80;;;;;;;18.52;38.89;102455.44;5072921;28;20059;-74
2021/12/18 01:31:01;;;;;;;10.20;9.20;;;;;;;18.51;38.84;102448.34;5073573;28;20407;-75
2021/12/18 01:33:28;;;;;;;8.52;7.72;;;;;;;18.52;38.98;102450.06;5073104;28;20048;-75
2021/12/18 01:35:59;;;;;;;8.38;7.50;;;;;;;18.53;39.09;102461.66;5072901;28;20041;-74
2021/12/18 01:38:31;;;;;;;8.48;7.68;;;;;;;18.52;38.98;102463.47;5073757;28;20060;-74
2021/12/18 01:40:59;;;;;;;8.73;7.93;;;;;;;18.52;38.96;102473.34;5072864;28;20052;-74
2021/12/18 01:46:16;;;;;;;8.90;8.00;;;;;;;18.52;38.90;102468.00;5072239;28;20385;-74
2021/12/18 01:51:46;;;;;;;9.25;7.53;;;;;;;18.52;38.99;102460.81;5052117;28;20079;-74
2021/12/18 01:54:15;;;;;;;8.00;7.15;;;;;;;18.52;39.08;102465.31;5053452;28;20051;-74
2021/12/18 01:56:42;;;;;;;7.93;7.15;;;;;;;18.52;38.96;102470.66;5053133;28;20037;-74
2021/12/18 01:59:10;;;;;;;7.53;6.82;;;;;;;18.52;38.91;102471.53;5051207;28;20053;-74
2021/12/18 02:01:37;;;;;;;7.80;7.05;;;;;;;18.51;39.02;102485.00;5052633;28;20493;-74
2021/12/18 02:04:04;;;;;;;8.05;7.25;;;;;;;18.51;38.94;102477.84;5053009;28;20045;-74
2021/12/18 02:06:32;;;;;;;7.93;7.22;;;;;;;18.51;39.10;102485.91;5051649;28;20055;-74
2021/12/18 02:08:59;;;;;;;8.85;8.05;;;;;;;18.51;39.14;102490.38;5053176;28;20484;-74
2021/12/18 02:11:33;;;;;;;8.65;7.85;;;;;;;18.51;39.23;102490.38;5058953;28;20041;-74
2021/12/18 02:19:50;;;;;;;7.93;7.07;;;;;;;18.51;39.21;102501.09;5051568;28;20053;-74
2021/12/18 02:22:20;;;;;;;8.02;7.22;;;;;;;18.50;39.24;102500.25;5056267;28;20049;-74
2021/12/18 02:24:48;;;;;;;7.90;7.20;;;;;;;18.50;39.28;102504.75;5056706;28;20057;-75
2021/12/18 02:27:16;;;;;;;7.85;7.07;;;;;;;18.49;39.30;102511.06;5056705;28;20045;-74
2021/12/18 02:29:44;;;;;;;7.90;7.18;;;;;;;18.50;39.03;102507.41;5056471;28;20045;-74
2021/12/18 02:32:12;;;;;;;7.78;6.97;;;;;;;18.50;39.24;102515.47;5056348;28;20049;-74
2021/12/18 02:34:41;;;;;;;7.35;6.63;;;;;;;18.49;39.24;102508.38;5055234;28;20052;-74
2021/12/18 02:37:11;;;;;;;6.90;6.20;;;;;;;18.49;39.15;102513.75;5055238;28;20051;-74
2021/12/18 02:40:47;;;;;;;7.70;7.00;;;;;;;18.49;39.07;102524.47;5056664;28;20049;-74
2021/12/18 02:42:42;;;;;;;7.72;7.03;;;;;;;18.48;39.02;102523.59;5056129;28;20064;-74
2021/12/18 02:45:09;;;;;;;8.50;7.70;;;;;;;18.47;39.13;102519.22;5056845;28;20044;-74
2021/12/18 02:47:37;;;;;;;7.18;6.47;;;;;;;18.47;39.10;102513.84;5056356;28;20049;-74
2021/12/18 02:50:05;;;;;;;7.65;6.88;;;;;;;18.48;38.99;102501.28;5055503;28;20063;-74
2021/12/18 02:52:32;;;;;;;7.15;6.45;;;;;;;18.47;39.15;102504.91;5054812;28;20045;-74
2021/12/18 02:55:00;;;;;;;6.78;6.18;;;;;;;18.46;39.09;102504.03;5056025;28;20048;-74
2021/12/18 02:57:27;;;;;;;7.63;6.93;;;;;;;18.47;38.92;102510.25;5056130;28;20056;-74
2021/12/18 02:59:57;;;;;;;6.90;6.30;;;;;;;18.46;39.13;102511.22;5056163;28;20052;-74
2021/12/18 03:02:26;;;;;;;7.85;7.15;;;;;;;18.45;38.92;102518.41;5054552;28;20784;-74
2021/12/18 03:04:58;;;;;;;7.72;7.03;;;;;;;18.45;38.90;102520.22;5054612;28;20416;-75
2021/12/18 03:07:28;;;;;;;7.10;6.50;;;;;;;18.45;39.09;102523.78;5054816;28;20417;-74
2021/12/18 03:24:08;;;;;;;6.85;6.25;;;;;;;18.43;39.06;102524.78;5075444;28;20051;-75
2021/12/18 03:26:04;;;;;;;6.97;6.38;;;;;;;18.43;38.85;102530.16;5067562;28;20523;-75
2021/12/18 03:28:32;;;;;;;7.07;6.47;;;;;;;18.42;39.00;102520.38;5075838;28;20051;-74
2021/12/18 03:31:00;;;;;;;7.40;6.70;;;;;;;18.42;39.06;102521.25;5075362;28;20044;-75
2021/12/18 03:33:27;;;;;;;6.68;6.07;;;;;;;18.42;38.99;102534.66;5075439;28;20048;-74
2021/12/18 03:35:56;;;;;;;7.13;6.43;;;;;;;18.41;38.93;102538.31;5076019;28;20037;-74
2021/12/18 03:38:24;;;;;;;6.95;6.32;;;;;;;18.40;38.98;102538.41;5075125;28;20044;-75
2021/12/18 03:40:51;;;;;;;7.40;6.72;;;;;;;18.40;39.11;102533.03;5057281;28;20098;-75
2021/12/18 03:43:19;;;;;;;7.35;6.68;;;;;;;18.40;39.11;102536.56;5074164;28;20412;-74
2021/12/18 03:45:46;;;;;;;7.50;6.80;;;;;;;18.38;39.14;102538.47;5075152;28;20040;-74
2021/12/18 03:48:13;;;;;;;6.78;6.13;;;;;;;18.39;39.11;102533.97;5073628;28;20048;-75
2021/12/18 03:50:41;;;;;;;7.47;6.65;;;;;;;18.38;39.24;102526.88;5069877;28;20493;-74
2021/12/18 03:53:08;;;;;;;9.32;6.28;;;;;;;18.37;39.22;102526.00;5054450;28;20040;-74
2021/12/18 03:55:36;;;;;;;7.15;6.55;;;;;;;18.38;39.11;102537.59;5054786;28;20041;-74
2021/12/18 03:58:03;;;;;;;7.07;6.38;;;;;;;18.36;39.23;102543.06;5054920;28;20049;-75
2021/12/18 04:00:31;;;;;;;7.53;6.82;;;;;;;18.37;39.14;102535.88;5054754;28;20041;-74
2021/12/18 04:02:58;;;;;;;6.93;6.22;;;;;;;18.36;39.05;102528.78;5055452;28;20037;-74
2021/12/18 04:05:26;;;;;;;6.80;6.20;;;;;;;18.36;39.17;102531.47;5054866;28;20493;-74
2021/12/18 04:08:08;;;;;;;10.93;6.82;;;;;;;18.38;39.18;102537.59;5054543;28;20092;-74
2021/12/18 04:10:38;;;;;;;7.03;6.32;;;;;;;18.38;39.20;102542.97;5055160;28;20049;-75
2021/12/18 04:13:07;;;;;;;7.03;6.43;;;;;;;18.37;39.13;102546.59;5034687;28;20429;-75
2021/12/18 04:15:37;;;;;;;7.20;6.50;;;;;;;18.37;39.04;102543.91;5034573;28;20045;-75
2021/12/18 04:18:05;;;;;;;6.40;5.80;;;;;;;18.35;39.16;102549.38;5051840;28;20044;-75
2021/12/18 04:20:32;;;;;;;6.68;6.07;;;;;;;18.36;39.08;102572.56;5054482;28;20041;-75
2021/12/18 04:23:00;;;;;;;6.43;5.82;;;;;;;18.36;39.24;102585.09;5054227;28;20041;-75
2021/12/18 04:25:27;;;;;;;6.97;6.28;;;;;;;18.36;39.18;102571.69;5037235;28;20053;-74
2021/12/18 04:27:56;;;;;;;7.50;6.80;;;;;;;18.35;39.15;102570.84;5054270;28;20405;-74
2021/12/18 04:30:23;;;;;;;6.72;6.03;;;;;;;18.36;39.04;102583.28;5055073;28;20045;-74
2021/12/18 04:32:55;;;;;;;7.05;6.35;;;;;;;18.35;39.29;102592.28;5054282;28;20052;-74
2021/12/18 04:35:23;;;;;;;6.60;6.00;;;;;;;18.36;39.15;102593.16;5054336;28;20053;-75
2021/12/18 04:37:50;;;;;;;6.43;5.85;;;;;;;18.34;38.79;102592.34;5053179;28;20049;-75
2021/12/18 04:40:18;;;;;;;6.47;5.90;;;;;;;18.35;39.08;102591.38;5054023;28;20040;-75
2021/12/18 04:42:45;;;;;;;6.90;6.30;;;;;;;18.35;39.02;102591.38;5053511;28;20056;-74
2021/12/18 04:45:13;;;;;;;6.72;6.03;;;;;;;18.34;39.00;102589.66;5053887;28;20051;-75
2021/12/18 04:47:40;;;;;;;6.55;5.95;;;;;;;18.34;38.87;102589.66;5053986;28;20052;-74
2021/12/18 04:50:08;;;;;;;6.15;5.55;;;;;;;18.33;38.99;102593.28;5054001;28;20045;-74
2021/12/18 04:52:35;;;;;;;6.53;5.93;;;;;;;18.34;38.94;102600.38;5051501;28;20048;-74
2021/12/18 04:55:04;;;;;;;5.85;5.35;;;;;;;18.34;38.82;102605.75;5053750;28;20048;-74
2021/12/18 04:57:31;;;;;;;6.32;5.75;;;;;;;18.33;38.85;102604.03;5052414;28;20060;-74
2021/12/18 04:59:59;;;;;;;6.45;5.85;;;;;;;18.33;38.75;102607.56;5053721;28;20053;-74
2021/12/18 05:02:39;;;;;;;6.55;5.95;;;;;;;18.33;38.99;102601.34;5053999;28;20052;-74
2021/12/18 05:05:09;;;;;;;6.40;5.80;;;;;;;18.32;38.99;102602.31;5052754;28;20045;-74
2021/12/18 05:07:37;;;;;;;8.43;5.53;;;;;;;18.32;38.91;102599.63;5052387;28;20385;-74
2021/12/18 05:10:06;;;;;;;6.15;5.38;;;;;;;18.31;38.97;102597.84;5053418;28;20048;-75
2021/12/18 05:12:34;;;;;;;5.85;5.35;;;;;;;18.31;38.88;102611.25;5068161;28;20059;-74
2021/12/18 05:15:01;;;;;;;6.20;5.60;;;;;;;18.31;38.88;102608.59;5073718;28;20045;-74
2021/12/18 05:17:29;;;;;;;6.13;5.53;;;;;;;18.29;38.90;102617.59;5073244;28;20048;-75
2021/12/18 05:19:56;;;;;;;6.18;5.57;;;;;;;18.29;38.87;102631.00;5073111;28;20507;-74
2021/12/18 05:22:24;;;;;;;6.03;5.50;;;;;;;18.28;38.91;102633.75;5072289;28;20044;-75
2021/12/18 05:24:51;;;;;;;6.50;5.90;;;;;;;18.28;38.79;102633.75;5073502;28;20488;-75
2021/12/18 05:27:18;;;;;;;5.72;5.22;;;;;;;18.28;38.81;102631.94;5073169;28;20045;-75
2021/12/18 05:29:46;;;;;;;6.35;5.75;;;;;;;18.27;39.04;102648.09;5073571;28;20395;-74
2021/12/18 05:32:13;;;;;;;5.95;5.35;;;;;;;18.27;39.01;102665.06;5073006;28;20051;-74
2021/12/18 05:34:41;;;;;;;6.25;5.65;;;;;;;18.27;39.02;102670.44;5071913;28;20048;-75
2021/12/18 05:37:19;;;;;;;6.85;5.75;;;;;;;18.27;38.88;102666.84;5073460;28;20048;-74
2021/12/18 05:39:48;;;;;;;5.88;5.30;;;;;;;18.26;38.94;102675.84;5073349;28;20052;-75
2021/12/18 05:42:16;;;;;;;6.55;5.80;;;;;;;18.25;38.91;102664.28;5072764;28;20455;-74
2021/12/18 05:44:44;;;;;;;5.75;5.25;;;;;;;18.26;38.93;102665.13;5072783;28;20048;-74
2021/12/18 05:47:12;;;;;;;5.88;5.38;;;;;;;18.24;39.00;102662.53;5072072;28;20040;-74
2021/12/18 05:49:40;;;;;;;6.32;5.72;;;;;;;18.24;39.13;102678.63;5071689;28;20048;-74
2021/12/18 05:52:08;;;;;;;6.55;5.95;;;;;;;18.25;39.05;102677.69;5072842;28;20044;-74
2021/12/18 05:54:36;;;;;;;6.10;5.60;;;;;;;18.23;39.15;102687.63;5049682;28;20040;-74
2021/12/18 05:57:05;;;;;;;6.07;5.47;;;;;;;18.23;39.08;102690.31;5052609;28;20041;-74
2021/12/18 05:59:34;;;;;;;5.90;5.40;;;;;;;18.22;38.96;102688.56;5052773;28;20049;-75
2021/12/18 06:02:02;;;;;;;6.03;5.07;;;;;;;18.23;38.86;102700.13;5052928;28;20049;-74
2021/12/18 06:04:29;;;;;;;6.65;5.70;;;;;;;18.22;39.07;102699.28;5051322;28;20045;-75
2021/12/18 06:07:03;;;;;;;6.50;5.88;;;;;;;18.22;39.08;102709.13;5052608;28;20041;-74
2021/12/18 06:09:34;;;;;;;6.55;5.95;;;;;;;18.21;38.63;102712.78;5052975;28;20056;-74
2021/12/18 06:12:02;;;;;;;6.25;5.65;;;;;;;18.20;39.08;102722.63;5063831;28;20071;-74
2021/12/18 06:14:29;;;;;;;6.55;5.95;;;;;;;18.21;39.00;102723.50;5072917;28;20048;-74
2021/12/18 06:16:56;;;;;;;5.95;5.40;;;;;;;18.20;38.93;102719.09;5067474;28;20048;-74
2021/12/18 06:19:24;;;;;;;6.50;5.50;;;;;;;18.20;38.98;102727.13;5051002;28;20417;-74
2021/12/18 06:21:51;;;;;;;6.45;5.85;;;;;;;18.19;38.78;102722.69;5052397;28;20067;-74
2021/12/18 06:24:19;;;;;;;6.47;5.88;;;;;;;18.20;38.90;102732.50;5052917;28;20049;-74
2021/12/18 06:26:46;;;;;;;6.25;5.75;;;;;;;18.20;38.98;102730.69;5051419;28;20045;-74
2021/12/18 06:29:13;;;;;;;6.60;5.80;;;;;;;18.20;39.15;102736.03;5052712;28;20052;-75
2021/12/18 06:31:41;;;;;;;6.38;5.55;;;;;;;18.20;39.19;102741.41;5051188;28;20041;-75
2021/12/18 06:34:14;;;;;;;6.65;5.57;;;;;;;18.19;39.23;102745.03;5052111;28;20049;-75
2021/12/18 06:36:42;;;;;;;6.00;5.43;;;;;;;18.20;39.08;102757.47;5052708;28;20049;-75
2021/12/18 06:39:09;;;;;;;7.07;5.40;;;;;;;18.18;39.00;102761.16;5050723;28;20517;-75
2021/12/18 06:41:36;;;;;;;7.15;6.15;;;;;;;18.19;38.92;102757.53;5051259;28;20045;-75
2021/12/18 06:44:05;;;;;;;6.10;5.55;;;;;;;18.18;38.94;102762.03;5052268;28;20052;-75
2021/12/18 06:46:32;;;;;;;6.25;5.65;;;;;;;18.18;39.01;102767.41;5050944;28;20049;-74
2021/12/18 06:49:00;;;;;;;5.72;5.22;;;;;;;18.19;39.06;102769.16;5052405;28;20428;-74
2021/12/18 06:51:27;;;;;;;6.38;5.78;;;;;;;18.19;39.11;102762.91;5051060;28;20057;-74
2021/12/18 06:53:55;;;;;;;8.88;6.35;;;;;;;18.18;39.14;102764.72;5050215;28;20053;-75
2021/12/18 06:56:23;;;;;;;6.28;5.68;;;;;;;18.18;39.16;102778.13;5051496;28;20041;-75
2021/12/18 06:58:50;;;;;;;5.63;5.13;;;;;;;18.18;38.97;102780.81;5052464;28;20045;-75
2021/12/18 07:01:18;;;;;;;6.53;5.93;;;;;;;18.18;39.08;102796.03;5051992;28;20049;-74
2021/12/18 07:03:45;;;;;;;8.18;5.75;;;;;;;18.18;39.17;102804.06;5050723;28;20049;-74
2021/12/18 07:06:13;;;;;;;5.60;5.10;;;;;;;18.18;39.23;102798.69;5052871;28;20056;-74
2021/12/18 07:08:40;;;;;;;6.45;5.72;;;;;;;18.18;39.12;102798.69;5056071;28;20048;-74
2021/12/18 07:11:07;;;;;;;8.52;6.00;;;;;;;18.17;39.12;102803.19;5059745;28;20048;-74
2021/12/18 07:13:35;;;;;;;5.88;5.28;;;;;;;18.17;39.11;102819.28;5076196;28;20055;-73
2021/12/18 07:16:02;;;;;;;6.60;6.00;;;;;;;18.16;39.10;102822.91;5075969;28;20154;-74
2021/12/18 07:18:30;;;;;;;6.90;5.97;;;;;;;18.16;39.12;102822.91;5075822;28;20041;-74
2021/12/18 07:20:58;;;;;;;7.28;6.10;;;;;;;18.16;39.07;102824.72;5076262;28;20045;-74
2021/12/18 07:23:25;;;;;;;6.63;5.68;;;;;;;18.14;39.05;102830.16;5075561;28;20049;-74
2021/12/18 07:25:53;;;;;;;6.97;5.88;;;;;;;18.15;38.90;102837.28;5075541;28;20051;-74
2021/12/18 07:28:20;;;;;;;5.90;5.30;;;;;;;18.15;39.01;102829.22;5075697;28;20048;-74
2021/12/18 07:30:48;;;;;;;6.25;5.60;;;;;;;18.15;39.01;102842.63;5075724;28;20047;-74
2021/12/18 07:33:15;;;;;;;6.80;6.13;;;;;;;18.14;39.00;102848.06;5075724;28;20048;-74
2021/12/18 07:35:43;;;;;;;6.82;6.22;;;;;;;18.13;39.13;102852.53;5075528;28;20052;-74
2021/12/18 07:38:11;;;;;;;7.68;5.82;;;;;;;18.13;39.28;102863.28;5075200;28;20040;-74
2021/12/18 07:40:39;;;;;;;9.23;6.05;;;;;;;18.13;39.34;102860.59;5075905;28;20048;-74
2021/12/18 07:43:06;;;;;;;6.63;5.93;;;;;;;18.12;39.28;102869.59;5075067;28;20044;-74
2021/12/18 07:45:34;;;;;;;7.10;6.43;;;;;;;18.12;39.23;102869.59;5075153;28;20044;-75
2021/12/18 07:48:02;;;;;;;7.05;6.18;;;;;;;18.12;39.18;102871.41;5074048;28;20047;-74
2021/12/18 07:50:30;;;;;;;6.93;6.22;;;;;;;18.10;39.63;102874.13;5073996;28;20496;-74
2021/12/18 07:52:58;;;;;;;6.90;6.20;;;;;;;18.11;39.65;102880.34;5073874;28;20059;-74
2021/12/18 07:55:28;;;;;;;7.05;6.38;;;;;;;18.09;39.29;102877.75;5063793;28;20045;-74
2021/12/18 07:57:55;;;;;;;6.82;6.13;;;;;;;18.10;39.63;102892.91;5054342;28;20041;-74
2021/12/18 08:00:23;;;;;;;6.85;6.15;;;;;;;18.09;39.48;102891.16;5054858;28;20060;-74
2021/12/18 08:02:51;;;;;;;6.85;6.15;;;;;;;18.08;39.58;102886.75;5055374;28;20041;-74
2021/12/18 08:05:19;;;;;;;8.80;6.68;;;;;;;18.08;39.30;102896.63;5054811;28;20507;-75
2021/12/18 08:07:46;;;;;;;7.90;7.10;;;;;;;18.06;39.31;102891.31;5054679;28;20472;-74
2021/12/18 08:10:13;;;;;;;7.75;6.88;;;;;;;18.06;39.40;102885.06;5054985;28;20049;-74
2021/12/18 08:12:41;;;;;;;8.05;7.25;;;;;;;18.05;39.58;102886.91;5071509;28;20052;-74
2021/12/18 08:15:09;;;;;;;7.95;7.15;;;;;;;18.06;39.39;102885.94;5074795;28;20045;-75
2021/12/18 08:17:37;;;;;;;7.80;7.00;;;;;;;18.04;39.39;102886.03;5069347;28;20400;-74
2021/12/18 08:20:05;;;;;;;7.90;7.10;;;;;;;18.05;39.44;102892.25;5054017;28;20056;-74
2021/12/18 08:22:33;;;;;;;7.93;7.10;;;;;;;18.06;39.54;102893.13;5053419;28;20048;-74
2021/12/18 08:25:01;;;;;;;8.23;6.50;;;;;;;18.04;39.63;102899.44;5054609;28;20060;-74
2021/12/18 08:27:30;;;;;;;8.32;7.40;;;;;;;18.05;39.37;102884.22;5054803;28;20045;-74
2021/12/18 08:29:57;;;;;;;9.98;7.60;;;;;;;18.04;39.49;102883.34;5054383;28;20051;-74
2021/12/18 08:32:25;;;;;;;7.82;6.82;;;;;;;18.05;39.51;102889.56;5054448;28;20059;-74
2021/12/18 08:34:53;;;;;;;9.68;7.60;;;;;;;18.04;39.53;102898.56;5052956;28;20053;-74
2021/12/18 08:37:20;;;;;;;8.85;7.95;;;;;;;18.04;39.46;102899.44;5069946;28;20115;-74
2021/12/18 08:39:49;;;;;;;7.70;6.88;;;;;;;18.06;39.72;102911.88;5053923;28;20052;-75
2021/12/18 08:42:18;;;;;;;8.25;7.10;;;;;;;18.04;39.78;102918.19;5054418;28;20060;-74
2021/12/18 08:44:45;;;;;;;10.07;7.82;;;;;;;18.05;39.72;102919.06;5053714;28;20056;-75
2021/12/18 08:47:14;;;;;;;8.40;7.13;;;;;;;18.04;39.95;102918.19;5053955;28;20041;-74
2021/12/18 08:49:42;;;;;;;10.32;7.38;;;;;;;18.04;39.75;102923.56;5052997;28;20085;-74
2021/12/18 08:52:09;;;;;;;10.95;7.88;;;;;;;18.04;39.92;102920.00;5054020;28;20056;-74
2021/12/18 08:54:36;;;;;;;9.85;8.50;;;;;;;18.03;39.26;102929.88;5052843;28;20056;-74
2021/12/18 08:57:10;;;;;;;12.27;11.00;;;;;;;17.98;38.29;102931.88;5051627;28;20064;-74
2021/12/18 08:59:38;;;;;;;10.93;9.82;;;;;;;17.96;39.11;102928.41;5053799;28;20392;-74
2021/12/18 09:02:07;;;;;;;12.27;10.85;;;;;;;17.95;39.15;102942.75;5053702;28;20056;-77
2021/12/18 09:04:35;;;;;;;14.68;11.88;;;;;;;17.97;38.79;102945.34;5053802;28;20060;-75
2021/12/18 09:07:04;;;;;;;16.48;11.57;;;;;;;17.97;38.89;102931.94;5052716;28;20049;-74
2021/12/18 09:09:38;;;;;;;;;;;;;;;17.98;39.21;102942.59;5053747;28;20047;-75
2021/12/18 09:12:08;;;;;;;12.68;9.90;;;;;;;17.99;39.21;102939.00;5053186;28;19928;-75
2021/12/18 09:14:36;;;;;;;13.07;9.82;;;;;;;18.00;39.12;102943.41;5052648;28;20049;-75
2021/12/18 09:17:04;;;;;;;15.65;10.95;;;;;;;18.00;39.47;102942.53;5053493;28;20504;-75
2021/12/18 09:19:32;;;;;;;13.55;10.45;;;;;;;18.02;39.33;102946.00;5053422;28;20480;-75
2021/12/18 09:21:59;;;;;;;11.63;10.32;;;;;;;18.03;39.47;102953.13;5053567;28;20056;-75
2021/12/18 09:24:27;;;;;;;11.98;9.63;;;;;;;18.02;39.80;102948.69;5053692;28;20049;-75
2021/12/18 09:26:55;;;;;;;11.40;9.50;;;;;;;18.02;39.75;102954.03;5053228;28;20059;-75
2021/12/18 09:29:22;;;;;;;12.80;10.73;;;;;;;18.01;39.73;102961.22;5053240;28;20041;-75
2021/12/18 09:31:50;;;;;;;13.00;10.07;;;;;;;18.00;39.72;102956.81;5052179;28;20044;-75
2021/12/18 09:34:17;;;;;;;12.70;10.07;;;;;;;18.01;39.90;102963.88;5053049;28;20072;-75
2021/12/18 09:36:45;;;;;;;15.05;11.10;;;;;;;18.01;39.92;102954.97;5053154;28;20052;-75
2021/12/18 09:39:14;;;;;;;12.80;10.55;;;;;;;18.00;39.84;102955.94;5053322;28;20060;-75
2021/12/18 09:41:42;;;;;;;12.13;10.23;;;;;;;18.02;40.12;102951.34;5052700;28;20041;-75
2021/12/18 09:44:10;;;;;;;12.18;10.23;;;;;;;18.01;40.22;102953.16;5053334;28;20077;-75
2021/12/18 09:46:37;;;;;;;13.45;11.38;;;;;;;18.02;40.23;102954.03;5053320;28;20503;-75
2021/12/18 09:49:06;;;;;;;14.20;11.43;;;;;;;18.01;40.14;102939.78;5053353;28;20461;-75
2021/12/18 09:51:37;;;;;;;12.25;10.98;;;;;;;18.02;40.08;102946.00;5052059;28;20059;-75
2021/12/18 09:54:04;;;;;;;15.45;11.15;;;;;;;18.01;40.66;102942.44;5052744;28;20045;-76
2021/12/18 09:56:32;;;;;;;13.65;10.60;;;;;;;18.01;41.03;102939.78;5052262;28;20045;-75
2021/12/18 09:58:59;;;;;;;12.70;10.48;;;;;;;18.02;41.12;102941.50;5050326;28;20041;-75
2021/12/18 10:01:27;;;;;;;13.90;10.82;;;;;;;18.03;40.81;102934.34;5051893;28;20390;-75
2021/12/18 10:03:58;;;;;;;15.27;11.05;;;;;;;18.02;40.73;102943.31;5052611;28;20397;-76
2021/12/18 10:06:35;;;;;;;17.35;11.02;;;;;;;18.01;40.72;102937.09;5052943;28;20055;-75
2021/12/18 10:09:09;;;;;;;15.40;12.00;;;;;;;18.02;40.55;102938.81;5052922;28;20045;-75
2021/12/18 10:11:52;;;;;;;13.55;10.52;;;;;;;18.02;40.49;102930.78;5051565;28;20055;-75
2021/12/18 10:14:32;;;;;;;14.23;10.43;;;;;;;18.02;40.95;102932.59;5052641;28;20416;-74
2021/12/18 10:16:59;;;;;;;14.73;11.15;;;;;;;18.02;40.85;102928.09;5051381;28;20075;-74
2021/12/18 10:19:36;;;;;;;14.48;10.43;;;;;;;18.04;40.52;102931.59;5052725;28;20044;-75
2021/12/18 10:22:07;;;;;;;15.43;10.85;;;;;;;18.04;40.44;102934.28;5050906;28;20417;-74
2021/12/18 10:24:37;;;;;;;18.45;11.68;;;;;;;18.03;40.38;102919.13;5052405;28;20053;-83
2021/12/18 10:27:20;;;;;;;13.70;10.80;;;;;;;18.09;40.36;102928.69;5034855;28;20049;-75
2021/12/18 10:29:50;;;;;;;13.85;11.10;;;;;;;18.09;40.18;102928.69;5051683;28;20507;-77
2021/12/18 10:32:23;;;;;;;15.80;11.13;;;;;;;18.10;40.19;102927.75;5052182;28;20049;-75
2021/12/18 10:35:00;;;;;;;15.63;11.98;;;;;;;18.09;39.74;102927.81;5052884;28;20045;-76
2021/12/18 10:37:33;;;;;;;14.00;10.95;;;;;;;18.08;39.90;102916.25;5052138;28;20071;-74
2021/12/18 10:40:06;;;;;;;14.93;11.65;;;;;;;18.08;39.83;102918.91;5051994;28;20393;-75
2021/12/18 10:42:39;;;;;;;14.80;11.43;;;;;;;18.06;39.86;102936.88;5054838;28;20417;-74
2021/12/18 10:45:17;;;;;;;13.40;10.98;;;;;;;18.06;40.69;102927.97;5056391;28;20044;-74
2021/12/18 10:47:45;;;;;;;16.33;11.30;;;;;;;18.04;40.50;102920.00;5056192;28;20060;-74
2021/12/18 10:50:16;;;;;;;16.20;12.25;;;;;;;18.03;40.22;102919.13;5056606;28;20040;-74
2021/12/18 10:52:44;;;;;;;17.58;12.43;;;;;;;18.02;39.96;102930.78;5056484;28;20049;-75
2021/12/18 10:55:11;;;;;;;14.63;11.43;;;;;;;18.01;40.01;102926.38;5055955;28;20055;-75
2021/12/18 10:57:51;;;;;;;17.02;11.55;;;;;;;18.01;40.10;102930.88;5053939;28;20044;-75
2021/12/18 11:00:30;;;;;;;14.52;11.00;;;;;;;18.01;40.24;102928.19;5053434;28;20033;-75
2021/12/18 11:02:58;;;;;;;18.75;12.02;;;;;;;17.99;40.48;102933.63;5054025;28;20052;-75
2021/12/18 11:05:25;;;;;;;15.23;12.52;;;;;;;18.00;40.77;102931.81;5054801;28;20049;-75
2021/12/18 11:08:08;;;;;;;14.73;12.52;;;;;;;17.98;41.86;102937.22;5055001;28;20049;-76
2021/12/18 11:10:42;;;;;;;16.20;12.43;;;;;;;17.97;42.53;102929.28;5056108;28;20377;-75
2021/12/18 11:15:56;;;;;;;24.10;19.42;;;;;;;17.89;41.24;102924.25;5055164;28;20068;-75
2021/12/18 11:18:24;;;;;;;20.48;14.27;;;;;;;17.84;44.42;102910.22;5054541;28;20048;-75
2021/12/18 11:20:52;;;;;;;15.90;14.13;;;;;;;17.83;44.76;102907.63;5055303;28;20044;-75
2021/12/18 11:23:39;;;;;;;18.27;13.25;;;;;;;17.82;44.36;102906.72;5054107;28;20049;-75
2021/12/18 11:26:08;;;;;;;20.67;13.15;;;;;;;17.83;44.32;102907.63;5055487;28;20056;-75
2021/12/18 11:28:41;;;;;;;16.33;13.38;;;;;;;17.82;44.34;102903.19;5054922;28;20050;-75
2021/12/18 11:31:10;;;;;;;15.45;12.45;;;;;;;17.82;45.15;102905.88;5053933;28;20052;-75
2021/12/18 11:33:38;;;;;;;18.65;12.95;;;;;;;17.83;45.83;102894.22;5054277;28;20048;-75
2021/12/18 11:36:08;;;;;;;19.52;14.63;;;;;;;17.82;46.15;102887.09;5054942;28;20056;-74
2021/12/18 11:38:39;;;;;;;16.58;12.57;;;;;;;17.81;45.87;102886.25;5054670;28;20049;-75
2021/12/18 11:41:12;;;;;;;19.15;13.65;;;;;;;17.81;46.16;102894.28;5055529;28;20119;-74
2021/12/18 11:43:44;;;;;;;23.65;15.02;;;;;;;17.81;46.61;102883.56;5055156;28;20084;-75
2021/12/18 11:46:37;;;;;;;19.70;13.82;;;;;;;17.81;46.25;102885.38;5053772;28;20056;-75
2021/12/18 11:49:07;;;;;;;17.80;14.23;;;;;;;17.79;45.94;102869.38;5055553;28;20041;-75
2021/12/18 11:51:35;;;;;;;15.23;13.63;;;;;;;17.80;46.53;102873.81;5054910;28;20381;-75
2021/12/18 11:54:03;;;;;;;18.48;13.05;;;;;;;17.79;45.80;102880.97;5054764;28;20052;-75
2021/12/18 11:56:50;;;;;;;18.38;13.50;;;;;;;17.79;46.20;102874.75;5054317;28;20053;-74
2021/12/18 11:59:54;;;;;;;17.48;13.52;;;;;;;17.78;46.04;102875.66;5054096;28;20052;-74
2021/12/18 12:02:42;;;;;;;17.02;13.60;;;;;;;17.78;46.13;102875.66;5054749;28;20381;-75
2021/12/18 12:05:11;;;;;;;17.38;13.25;;;;;;;17.78;45.79;102865.84;5054733;28;20060;-75
2021/12/18 12:07:39;;;;;;;17.98;13.45;;;;;;;17.77;46.11;102873.94;5054353;28;20041;-74